createdAt,value
2022-10-18T00:00:49.905Z,100365.06
2022-10-18T00:04:02.472Z,100369.81
2022-10-18T00:07:09.139Z,100365.72
2022-10-18T00:10:17.739Z,100371.72
2022-10-18T00:13:23.404Z,100378.16
2022-10-18T00:16:41.319Z,100375.50
2022-10-18T00:19:51.087Z,100373.44
2022-10-18T00:22:59.341Z,100371.59
2022-10-18T00:26:05.175Z,100384.13
2022-10-18T00:29:12.353Z,100383.31
2022-10-18T00:32:28.818Z,100396.06
2022-10-18T00:35:36.563Z,100402.63
2022-10-18T00:38:47.305Z,100402.19
2022-10-18T00:42:00.247Z,100417.00
2022-10-18T00:45:15.656Z,100425.63
2022-10-18T00:48:25.030Z,100414.66
2022-10-18T00:51:38.211Z,100425.34
2022-10-18T00:54:45.101Z,100426.16
2022-10-18T00:57:50.522Z,100423.63
2022-10-18T01:01:00.447Z,100425.69
2022-10-18T01:04:19.580Z,100420.72
2022-10-18T01:07:25.164Z,100422.72
2022-10-18T01:10:39.341Z,100426.25
2022-10-18T01:13:45.093Z,100439.06
2022-10-18T01:16:50.468Z,100439.50
2022-10-18T01:20:06.479Z,100434.16
2022-10-18T01:23:12.016Z,100433.38
2022-10-18T01:26:37.037Z,100435.25
2022-10-18T01:29:46.961Z,100423.53
2022-10-18T01:32:52.252Z,100427.69
2022-10-18T01:35:58.995Z,100427.28
2022-10-18T01:39:08.812Z,100423.59
2022-10-18T01:42:17.248Z,100424.22
2022-10-18T01:45:38.282Z,100425.25
2022-10-18T01:48:47.807Z,100429.59
2022-10-18T01:51:53.913Z,100437.03
2022-10-18T01:54:59.471Z,100436.81
2022-10-18T01:58:15.679Z,100449.41
2022-10-18T02:01:23.794Z,100441.34
2022-10-18T02:04:29.129Z,100455.59
2022-10-18T02:07:43.073Z,100460.75
2022-10-18T02:10:51.125Z,100453.75
2022-10-18T02:14:04.826Z,100454.56
2022-10-18T02:17:12.111Z,100456.63
2022-10-18T02:20:20.427Z,100471.28
2022-10-18T02:23:26.294Z,100470.88
2022-10-18T02:26:41.784Z,100474.00
2022-10-18T02:30:19.204Z,100476.28
2022-10-18T02:33:24.759Z,100480.41
2022-10-18T02:36:46.889Z,100479.41
2022-10-18T02:39:52.444Z,100475.69
2022-10-18T02:42:58.573Z,100486.66
2022-10-18T02:46:04.448Z,100491.19
2022-10-18T02:49:14.834Z,100485.00
2022-10-18T02:52:24.676Z,100501.06
2022-10-18T02:55:32.818Z,100503.31
2022-10-18T02:58:38.708Z,100514.06
2022-10-18T03:01:47.522Z,100517.34
2022-10-18T03:04:54.471Z,100509.50
2022-10-18T03:08:06.742Z,100513.22
2022-10-18T03:11:14.445Z,100508.06
2022-10-18T03:14:20.592Z,100516.09
2022-10-18T03:17:30.585Z,100499.19
2022-10-18T03:20:37.884Z,100507.22
2022-10-18T03:23:43.832Z,100513.22
2022-10-18T03:26:55.587Z,100526.63
2022-10-18T03:30:22.204Z,100529.50
2022-10-18T03:33:40.336Z,100543.72
2022-10-18T03:36:53.118Z,100530.31
2022-10-18T03:40:01.805Z,100552.78
2022-10-18T03:43:07.518Z,100563.69
2022-10-18T03:46:19.816Z,100563.09
2022-10-18T03:49:25.671Z,100571.16
2022-10-18T03:52:35.814Z,100568.66
2022-10-18T03:55:41.811Z,100577.94
2022-10-18T03:58:47.035Z,100586.16
2022-10-18T04:01:53.204Z,100582.03
2022-10-18T04:05:03.269Z,100573.56
2022-10-18T04:08:09.226Z,100587.16
2022-10-18T04:11:21.917Z,100581.41
2022-10-18T04:14:28.063Z,100588.38
2022-10-18T04:17:41.662Z,100595.78
2022-10-18T04:20:48.384Z,100595.38
2022-10-18T04:23:53.880Z,100605.06
2022-10-18T04:26:59.483Z,100600.09
2022-10-18T04:30:05.900Z,100602.16
2022-10-18T04:33:18.998Z,100596.16
2022-10-18T04:36:53.567Z,100598.22
2022-10-18T04:40:03.721Z,100593.06
2022-10-18T04:43:09.637Z,100591.81
2022-10-18T04:46:17.499Z,100591.38
2022-10-18T04:49:52.207Z,100595.47
2022-10-18T04:52:59.285Z,100591.97
2022-10-18T04:56:05.059Z,100593.78
2022-10-18T04:59:13.139Z,100593.94
2022-10-18T05:02:19.100Z,100598.22
2022-10-18T05:06:03.153Z,100599.25
2022-10-18T05:09:09.137Z,100603.16
2022-10-18T05:12:17.990Z,100601.09
2022-10-18T05:15:24.331Z,100607.09
2022-10-18T05:18:44.173Z,100609.38
2022-10-18T05:21:49.919Z,100607.31
2022-10-18T05:24:55.612Z,100604.25
2022-10-18T05:28:10.529Z,100602.59
2022-10-18T05:34:42.172Z,100600.31
2022-10-18T05:37:47.983Z,100598.03
2022-10-18T05:40:53.933Z,100597.00
2022-10-18T05:44:00.118Z,100603.81
2022-10-18T05:47:06.156Z,100607.75
2022-10-18T05:50:11.550Z,100597.06
2022-10-18T05:53:36.319Z,100592.59
2022-10-18T05:56:43.213Z,100601.28
2022-10-18T05:59:49.205Z,100605.41
2022-10-18T06:02:59.442Z,100610.81
2022-10-18T06:06:06.257Z,100621.34
2022-10-18T06:09:17.956Z,100617.03
2022-10-18T06:12:24.024Z,100613.53
2022-10-18T06:15:31.476Z,100607.19
2022-10-18T06:18:38.555Z,100616.69
2022-10-18T06:22:04.236Z,100604.75
2022-10-18T06:25:10.221Z,100587.66
2022-10-18T06:28:16.356Z,100587.47
2022-10-18T06:31:22.464Z,100590.19
2022-10-18T06:34:29.140Z,100585.63
2022-10-18T06:40:49.023Z,100604.63
2022-10-18T06:44:16.684Z,100597.19
2022-10-18T06:47:22.389Z,100600.09
2022-10-18T06:50:29.378Z,100597.59
2022-10-18T06:53:43.759Z,100596.78
2022-10-18T06:56:56.855Z,100593.06
2022-10-18T07:00:11.838Z,100600.28
2022-10-18T07:03:17.284Z,100615.13
2022-10-18T07:06:22.809Z,100614.09
2022-10-18T07:09:29.810Z,100624.22
2022-10-18T07:12:39.687Z,100621.53
2022-10-18T07:15:49.682Z,100618.22
2022-10-18T07:18:55.694Z,100609.75
2022-10-18T07:22:02.319Z,100610.75
2022-10-18T07:25:16.828Z,100625.63
2022-10-18T07:28:23.783Z,100623.78
2022-10-18T07:31:33.872Z,100623.16
2022-10-18T07:34:40.950Z,100621.50
2022-10-18T07:37:47.435Z,100627.25
2022-10-18T07:40:54.835Z,100628.31
2022-10-18T07:44:04.947Z,100634.72
2022-10-18T07:47:10.646Z,100630.19
2022-10-18T07:50:22.790Z,100633.66
2022-10-18T07:53:29.027Z,100627.63
2022-10-18T07:56:37.333Z,100617.25
2022-10-18T07:59:50.005Z,100616.63
2022-10-18T08:02:59.631Z,100611.69
2022-10-18T08:06:05.701Z,100621.19
2022-10-18T08:09:18.565Z,100622.22
2022-10-18T08:12:28.264Z,100634.41
2022-10-18T08:15:38.229Z,100627.19
2022-10-18T08:18:43.993Z,100624.50
2022-10-18T08:21:54.190Z,100615.81
2022-10-18T08:24:59.951Z,100620.34
2022-10-18T08:28:06.423Z,100616.22
2022-10-18T08:31:22.480Z,100614.97
2022-10-18T08:34:28.280Z,100617.00
2022-10-18T08:37:45.038Z,100610.41
2022-10-18T08:40:50.471Z,100607.69
2022-10-18T08:47:28.950Z,100603.56
2022-10-18T08:50:38.145Z,100603.34
2022-10-18T08:53:44.134Z,100603.31
2022-10-18T08:56:50.552Z,100601.19
2022-10-18T09:00:05.344Z,100594.53
2022-10-18T09:03:12.101Z,100588.69
2022-10-18T09:06:22.702Z,100583.44
2022-10-18T09:09:29.100Z,100587.50
2022-10-18T09:12:38.961Z,100589.13
2022-10-18T09:15:44.941Z,100586.44
2022-10-18T09:18:51.896Z,100592.78
2022-10-18T09:21:58.638Z,100591.75
2022-10-18T09:25:07.228Z,100594.81
2022-10-18T09:28:13.720Z,100591.25
2022-10-18T09:31:30.672Z,100596.59
2022-10-18T09:34:40.557Z,100590.00
2022-10-18T09:37:48.675Z,100579.84
2022-10-18T09:41:02.696Z,100582.75
2022-10-18T09:44:08.523Z,100580.84
2022-10-18T09:47:17.012Z,100581.19
2022-10-18T09:51:17.769Z,100578.25
2022-10-18T09:53:57.418Z,100570.47
2022-10-18T09:57:04.093Z,100574.00
2022-10-18T10:00:09.774Z,100561.34
2022-10-18T10:03:18.504Z,100574.81
2022-10-18T10:06:24.643Z,100580.03
2022-10-18T10:09:32.197Z,100562.09
2022-10-18T10:12:37.800Z,100567.53
2022-10-18T10:15:52.196Z,100551.06
2022-10-18T10:19:09.375Z,100549.72
2022-10-18T10:22:17.894Z,100555.78
2022-10-18T10:25:26.675Z,100558.47
2022-10-18T10:28:32.292Z,100553.03
2022-10-18T10:31:54.807Z,100551.09
2022-10-18T10:35:04.842Z,100547.34
2022-10-18T10:38:10.762Z,100548.06
2022-10-18T10:41:16.885Z,100543.69
2022-10-18T10:44:41.737Z,100539.34
2022-10-18T10:47:47.652Z,100545.78
2022-10-18T10:50:55.316Z,100525.72
2022-10-18T10:54:01.520Z,100523.44
2022-10-18T10:57:11.550Z,100515.13
2022-10-18T11:00:18.494Z,100515.66
2022-10-18T11:03:31.888Z,100511.31
2022-10-18T11:06:38.112Z,100518.94
2022-10-18T11:09:47.507Z,100514.38
2022-10-18T11:12:53.310Z,100511.03
2022-10-18T11:16:00.749Z,100505.66
2022-10-18T11:19:08.084Z,100504.66
2022-10-18T11:22:18.186Z,100503.00
2022-10-18T11:25:25.315Z,100494.31
2022-10-18T11:28:32.871Z,100497.72
2022-10-18T11:31:39.462Z,100499.59
2022-10-18T11:34:45.399Z,100503.34
2022-10-18T11:37:56.069Z,100499.91
2022-10-18T11:41:06.241Z,100500.41
2022-10-18T11:44:12.795Z,100522.59
2022-10-18T11:47:21.746Z,100534.53
2022-10-18T11:50:31.859Z,100540.84
2022-10-18T11:53:38.867Z,100524.50
2022-10-18T11:56:49.415Z,100516.66
2022-10-18T11:59:58.773Z,100528.47
2022-10-18T12:03:05.711Z,100537.25
2022-10-18T12:06:21.901Z,100526.19
2022-10-18T12:09:28.778Z,100535.91
2022-10-18T12:12:35.233Z,100527.25
2022-10-18T12:15:41.515Z,100530.16
2022-10-18T12:18:50.817Z,100520.88
2022-10-18T12:22:01.223Z,100509.75
2022-10-18T12:25:08.871Z,100501.50
2022-10-18T12:28:14.318Z,100510.97
2022-10-18T12:31:21.491Z,100508.72
2022-10-18T12:34:30.339Z,100520.06
2022-10-18T12:37:36.279Z,100518.41
2022-10-18T12:40:42.253Z,100516.75
2022-10-18T12:43:50.921Z,100520.00
2022-10-18T12:46:58.529Z,100520.44
2022-10-18T12:50:06.795Z,100518.53
2022-10-18T12:53:12.858Z,100526.19
2022-10-18T12:56:31.768Z,100514.41
2022-10-18T12:59:37.855Z,100518.75
2022-10-18T13:02:44.517Z,100514.00
2022-10-18T13:05:54.723Z,100515.66
2022-10-18T13:09:01.036Z,100521.03
2022-10-18T13:12:07.521Z,100512.34
2022-10-18T13:15:25.654Z,100507.41
2022-10-18T13:22:03.482Z,100532.56
2022-10-18T13:25:12.693Z,100527.63
2022-10-18T13:31:42.070Z,100511.16
2022-10-18T13:34:48.065Z,100512.38
2022-10-18T13:38:08.805Z,100508.69
2022-10-18T13:41:17.465Z,100506.00
2022-10-18T13:44:23.240Z,100496.69
2022-10-18T13:47:29.129Z,100492.56
2022-10-18T13:50:39.449Z,100478.91
2022-10-18T13:53:45.303Z,100481.19
2022-10-18T13:56:53.768Z,100482.81
2022-10-18T13:59:59.542Z,100499.94
2022-10-18T14:03:31.595Z,100494.34
2022-10-18T14:07:02.579Z,100503.03
2022-10-18T14:10:09.797Z,100495.56
2022-10-18T14:13:16.321Z,100506.91
2022-10-18T14:16:22.683Z,100496.53
2022-10-18T14:19:40.379Z,100507.50
2022-10-18T14:22:46.046Z,100514.94
2022-10-18T14:26:05.595Z,100511.25
2022-10-18T14:29:12.135Z,100510.41
2022-10-18T14:32:17.985Z,100509.59
2022-10-18T14:35:33.020Z,100497.59
2022-10-18T14:38:44.996Z,100514.50
2022-10-18T14:42:13.350Z,100524.81
2022-10-18T14:45:18.967Z,100523.16
2022-10-18T14:48:28.542Z,100520.94
2022-10-18T14:51:44.036Z,100524.66
2022-10-18T14:54:52.776Z,100531.69
2022-10-18T14:58:03.148Z,100540.34
2022-10-18T15:01:12.641Z,100533.78
2022-10-18T15:04:18.442Z,100543.50
2022-10-18T15:07:35.976Z,100552.16
2022-10-18T15:10:42.039Z,100546.63
2022-10-18T15:14:08.570Z,100548.88
2022-10-18T15:17:15.242Z,100548.47
2022-10-18T15:20:20.794Z,100555.50
2022-10-18T15:23:26.305Z,100555.09
2022-10-18T15:26:44.817Z,100554.69
2022-10-18T15:29:56.972Z,100557.56
2022-10-18T15:36:28.249Z,100577.38
2022-10-18T15:39:38.318Z,100598.00
2022-10-18T15:42:55.829Z,100604.34
2022-10-18T15:46:13.308Z,100610.66
2022-10-18T15:49:21.046Z,100627.47
2022-10-18T15:52:28.265Z,100623.91
2022-10-18T15:55:36.452Z,100638.81
2022-10-18T15:58:51.079Z,100646.47
2022-10-18T16:02:00.362Z,100652.94
2022-10-18T16:05:07.187Z,100661.47
2022-10-18T16:08:14.481Z,100669.63
2022-10-18T16:11:35.875Z,100671.56
2022-10-18T16:14:51.635Z,100667.63
2022-10-18T16:17:58.600Z,100678.72
2022-10-18T16:21:04.841Z,100688.78
2022-10-18T16:24:10.798Z,100687.28
2022-10-18T16:27:19.423Z,100698.00
2022-10-18T16:30:55.622Z,100698.00
2022-10-18T16:34:07.459Z,100709.69
2022-10-18T16:37:12.876Z,100709.25
2022-10-18T16:43:32.470Z,100723.44
2022-10-18T16:46:41.268Z,100731.91
2022-10-18T16:49:47.097Z,100730.81
2022-10-18T16:52:53.015Z,100731.63
2022-10-18T16:55:58.977Z,100741.31
2022-10-18T16:59:06.117Z,100744.56
2022-10-18T17:02:12.287Z,100746.78
2022-10-18T17:05:17.737Z,100756.75
2022-10-18T17:08:26.500Z,100759.16
2022-10-18T17:11:34.032Z,100760.34
2022-10-18T17:14:45.923Z,100768.34
2022-10-18T17:17:59.026Z,100771.69
2022-10-18T17:21:05.550Z,100784.56
2022-10-18T17:24:14.142Z,100787.63
2022-10-18T17:27:20.466Z,100792.97
2022-10-18T17:30:26.487Z,100801.81
2022-10-18T17:33:33.816Z,100813.69
2022-10-18T17:36:39.851Z,100820.41
2022-10-18T17:39:46.667Z,100819.94
2022-10-18T17:42:53.016Z,100824.63
2022-10-18T17:46:00.993Z,100827.31
2022-10-18T17:49:07.719Z,100834.88
2022-10-18T17:52:14.191Z,100836.72
2022-10-18T17:55:25.953Z,100854.03
2022-10-18T17:58:31.851Z,100850.72
2022-10-18T18:01:40.098Z,100852.75
2022-10-18T18:04:45.898Z,100851.44
2022-10-18T18:07:51.980Z,100853.00
2022-10-18T18:10:58.235Z,100856.59
2022-10-18T18:14:12.666Z,100869.19
2022-10-18T18:17:28.578Z,100869.44
2022-10-18T18:20:44.028Z,100877.03
2022-10-18T18:23:53.055Z,100882.16
2022-10-18T18:26:59.916Z,100892.06
2022-10-18T18:30:08.285Z,100886.13
2022-10-18T18:33:31.642Z,100898.66
2022-10-18T18:36:38.427Z,100905.72
2022-10-18T18:39:44.450Z,100908.78
2022-10-18T18:43:12.177Z,100913.28
2022-10-18T18:46:17.736Z,100913.34
2022-10-18T18:49:23.598Z,100914.69
2022-10-18T18:52:36.664Z,100919.22
2022-10-18T18:55:44.400Z,100928.06
2022-10-18T18:58:50.325Z,100928.59
2022-10-18T19:01:57.509Z,100930.09
2022-10-18T19:05:24.914Z,100928.13
2022-10-18T19:08:30.815Z,100936.63
2022-10-18T19:11:36.997Z,100937.78
2022-10-18T19:14:56.150Z,100941.00
2022-10-18T19:18:01.755Z,100941.47
2022-10-18T19:21:08.824Z,100946.47
2022-10-18T19:24:18.855Z,100959.78
2022-10-18T19:27:24.823Z,100962.44
2022-10-18T19:30:31.492Z,100976.59
2022-10-18T19:33:48.381Z,100977.94
2022-10-18T19:37:02.605Z,100979.91
2022-10-18T19:40:08.564Z,100988.06
2022-10-18T19:43:14.588Z,100978.59
2022-10-18T19:46:20.791Z,100990.53
2022-10-18T19:49:26.482Z,100987.38
2022-10-18T19:52:35.775Z,100992.22
2022-10-18T19:55:45.011Z,101003.16
2022-10-18T19:58:51.893Z,101007.16
2022-10-18T20:01:58.111Z,101007.00
2022-10-18T20:05:04.927Z,101008.81
2022-10-18T20:08:11.108Z,101020.97
2022-10-18T20:11:16.636Z,101012.19
2022-10-18T20:14:23.490Z,101018.34
2022-10-18T20:17:29.537Z,101021.19
2022-10-18T20:20:36.118Z,101014.56
2022-10-18T20:23:41.791Z,101025.88
2022-10-18T20:26:47.734Z,101038.03
2022-10-18T20:29:53.760Z,101035.00
2022-10-18T20:36:23.818Z,101049.50
2022-10-18T20:39:30.229Z,101046.50
2022-10-18T20:42:36.522Z,101058.16
2022-10-18T20:45:42.078Z,101058.31
2022-10-18T20:48:47.783Z,101066.63
2022-10-18T20:51:53.474Z,101068.75
2022-10-18T20:54:59.230Z,101059.78
2022-10-18T20:58:05.036Z,101071.22
2022-10-18T21:01:10.647Z,101067.41
2022-10-18T21:04:16.398Z,101066.38
2022-10-18T21:07:48.574Z,101080.16
2022-10-18T21:10:58.377Z,101088.94
2022-10-18T21:14:07.317Z,101088.75
2022-10-18T21:17:13.797Z,101092.88
2022-10-18T21:20:19.363Z,101096.84
2022-10-18T21:23:38.363Z,101104.78
2022-10-18T21:26:47.426Z,101101.75
2022-10-18T21:29:54.727Z,101112.88
2022-10-18T21:33:11.798Z,101109.84
2022-10-18T21:36:20.347Z,101114.97
2022-10-18T21:39:30.211Z,101115.59
2022-10-18T21:42:36.352Z,101117.38
2022-10-18T21:45:42.152Z,101121.00
2022-10-18T21:48:48.114Z,101132.78
2022-10-18T21:51:56.069Z,101127.78
2022-10-18T21:55:04.206Z,101129.75
2022-10-18T21:58:10.055Z,101128.25
2022-10-18T22:01:20.304Z,101135.53
2022-10-18T22:03:58.103Z,101133.78
2022-10-18T22:06:31.781Z,101141.47
2022-10-18T22:11:51.175Z,101143.44
2022-10-18T22:14:31.616Z,101154.19
2022-10-18T22:17:00.100Z,101150.72
2022-10-18T22:19:31.843Z,101153.00
2022-10-18T22:22:00.678Z,101159.00
2022-10-18T22:24:38.809Z,101159.31
2022-10-18T22:27:13.122Z,101159.88
2022-10-18T22:29:56.558Z,101160.84
2022-10-18T22:32:28.179Z,101160.78
2022-10-18T22:34:58.939Z,101177.72
2022-10-18T22:37:27.331Z,101178.19
2022-10-18T22:40:04.173Z,101174.84
2022-10-18T22:42:35.816Z,101170.56
2022-10-18T22:45:06.405Z,101170.56
2022-10-18T22:47:38.219Z,101175.88
2022-10-18T22:50:10.638Z,101185.50
2022-10-18T22:52:51.554Z,101176.63
2022-10-18T22:55:27.414Z,101198.41
2022-10-18T22:57:57.705Z,101182.38
2022-10-18T23:00:31.386Z,101198.41
2022-10-18T23:03:04.076Z,101208.34
2022-10-18T23:05:39.703Z,101206.81
2022-10-18T23:08:14.481Z,101196.81
2022-10-18T23:10:44.622Z,101206.25
2022-10-18T23:13:14.382Z,101205.06
2022-10-18T23:15:48.395Z,101208.69
2022-10-18T23:18:19.692Z,101214.84
2022-10-18T23:21:01.384Z,101212.31
2022-10-18T23:23:37.600Z,101209.59
2022-10-18T23:26:07.366Z,101222.84
2022-10-18T23:28:39.722Z,101218.53
2022-10-18T23:31:20.821Z,101221.75
2022-10-18T23:33:55.997Z,101224.25
2022-10-18T23:36:30.168Z,101229.84
2022-10-18T23:38:59.110Z,101231.59
2022-10-18T23:41:35.868Z,101233.25
2022-10-18T23:44:05.649Z,101230.75
2022-10-18T23:46:41.903Z,101234.53
2022-10-18T23:49:22.386Z,101223.81
2022-10-18T23:51:52.596Z,101229.25
2022-10-18T23:54:25.313Z,101225.91
2022-10-18T23:56:57.628Z,101228.56
2022-10-18T23:59:36.149Z,101240.00
